createdAt,value
2018-07-08T00:00:14.444Z,12.90
2018-07-08T00:05:18.463Z,10.90
2018-07-08T00:10:22.700Z,11.97
2018-07-08T00:15:26.419Z,12.50
2018-07-08T00:20:30.124Z,12.00
2018-07-08T00:25:33.907Z,11.30
2018-07-08T00:30:37.548Z,13.80
2018-07-08T00:35:43.364Z,13.13
2018-07-08T00:40:46.980Z,12.90
2018-07-08T00:45:51.207Z,13.70
2018-07-08T00:50:54.813Z,12.80
2018-07-08T00:55:58.527Z,13.13
2018-07-08T01:01:02.375Z,17.30
2018-07-08T01:06:06.316Z,12.80
2018-07-08T01:11:10.154Z,13.37
2018-07-08T01:16:13.813Z,14.73
2018-07-08T01:21:17.456Z,14.03
2018-07-08T01:26:21.548Z,16.37
2018-07-08T01:31:25.088Z,13.33
2018-07-08T01:36:28.845Z,13.33
2018-07-08T01:41:32.492Z,11.90
2018-07-08T01:46:35.953Z,15.53
2018-07-08T01:51:39.520Z,14.23
2018-07-08T01:56:42.753Z,25.90
2018-07-08T02:01:46.463Z,16.37
2018-07-08T02:06:49.806Z,17.77
2018-07-08T02:11:53.741Z,17.30
2018-07-08T02:16:57.744Z,13.07
2018-07-08T02:22:01.327Z,18.70
2018-07-08T02:27:05.199Z,18.73
2018-07-08T02:32:09.732Z,16.77
2018-07-08T02:37:13.335Z,18.70
2018-07-08T02:42:18.944Z,15.73
2018-07-08T02:47:23.582Z,14.23
2018-07-08T02:52:27.515Z,17.30
2018-07-08T02:57:31.084Z,16.10
2018-07-08T03:02:35.239Z,16.53
2018-07-08T03:07:38.996Z,17.33
2018-07-08T03:12:42.917Z,15.60
2018-07-08T03:17:46.463Z,15.70
2018-07-08T03:22:50.034Z,17.33
2018-07-08T03:27:53.587Z,18.27
2018-07-08T03:32:57.476Z,16.93
2018-07-08T03:38:01.484Z,15.90
2018-07-08T03:43:05.030Z,16.37
2018-07-08T03:48:09.492Z,18.20
2018-07-08T03:53:13.031Z,15.93
2018-07-08T03:58:16.597Z,20.53
2018-07-08T04:03:20.135Z,14.50
2018-07-08T04:08:23.728Z,20.27
2018-07-08T04:13:27.415Z,18.50
2018-07-08T04:18:33.804Z,16.23
2018-07-08T04:23:37.369Z,17.10
2018-07-08T04:28:42.787Z,17.60
2018-07-08T04:33:46.340Z,17.80
2018-07-08T04:38:49.879Z,16.20
2018-07-08T04:43:53.772Z,17.70
2018-07-08T04:48:57.389Z,16.00
2018-07-08T04:54:00.920Z,17.90
2018-07-08T04:59:05.311Z,18.33
2018-07-08T05:04:08.853Z,19.57
2018-07-08T05:09:12.459Z,17.10
2018-07-08T05:14:16.110Z,20.40
2018-07-08T05:19:19.651Z,19.10
2018-07-08T05:24:23.230Z,19.17
2018-07-08T05:29:26.879Z,19.23
2018-07-08T05:34:30.563Z,20.90
2018-07-08T05:39:34.245Z,20.63
2018-07-08T05:44:38.789Z,20.60
2018-07-08T05:49:42.498Z,25.53
2018-07-08T05:54:46.212Z,20.10
2018-07-08T05:59:49.768Z,22.23
2018-07-08T06:04:53.318Z,22.90
2018-07-08T06:09:56.848Z,20.73
2018-07-08T06:15:00.203Z,18.60
2018-07-08T06:20:04.035Z,19.30
2018-07-08T06:25:08.462Z,18.97
2018-07-08T06:30:12.152Z,16.03
2018-07-08T06:35:16.676Z,17.60
2018-07-08T06:40:20.271Z,19.13
2018-07-08T06:45:23.976Z,23.93
2018-07-08T06:50:27.748Z,19.57
2018-07-08T06:55:31.299Z,21.27
2018-07-08T07:00:35.020Z,23.37
2018-07-08T07:05:38.568Z,21.83
2018-07-08T07:10:42.369Z,20.80
2018-07-08T07:15:45.916Z,20.67
2018-07-08T07:20:49.448Z,15.20
2018-07-08T07:25:53.705Z,16.40
2018-07-08T07:30:57.294Z,17.97
2018-07-08T07:36:00.888Z,21.70
2018-07-08T07:41:04.435Z,17.73
2018-07-08T07:46:08.367Z,19.90
2018-07-08T07:51:11.949Z,19.53
2018-07-08T07:56:15.717Z,19.60
2018-07-08T08:01:23.566Z,20.90
2018-07-08T08:06:27.397Z,19.57
2018-07-08T08:11:31.204Z,21.60
2018-07-08T08:16:35.696Z,19.20
2018-07-08T08:21:39.780Z,19.80
2018-07-08T08:26:44.000Z,18.47
2018-07-08T08:31:48.484Z,22.60
2018-07-08T08:36:52.015Z,20.17
2018-07-08T08:41:55.584Z,20.10
2018-07-08T08:46:59.171Z,23.03
2018-07-08T08:52:02.943Z,18.23
2018-07-08T08:57:06.587Z,17.93
2018-07-08T09:02:10.391Z,20.20
2018-07-08T09:07:15.146Z,18.60
2018-07-08T09:12:19.072Z,19.10
2018-07-08T09:17:23.002Z,18.53
2018-07-08T09:22:26.524Z,20.50
2018-07-08T09:27:30.244Z,19.33
2018-07-08T09:32:33.571Z,19.47
2018-07-08T09:37:37.628Z,18.93
2018-07-08T09:42:41.309Z,14.93
2018-07-08T09:47:44.844Z,14.90
2018-07-08T09:52:48.372Z,16.40
2018-07-08T09:57:57.533Z,18.43
2018-07-08T10:03:11.449Z,14.03
2018-07-08T10:08:15.198Z,15.80
2018-07-08T10:13:18.752Z,16.50
2018-07-08T10:18:22.286Z,17.50
2018-07-08T10:23:25.868Z,15.83
2018-07-08T10:28:29.461Z,19.73
2018-07-08T10:34:05.121Z,15.30
2018-07-08T10:39:10.303Z,19.70
2018-07-08T10:49:42.080Z,14.23
2018-07-08T10:54:45.686Z,15.60
2018-07-08T10:59:49.423Z,14.63
2018-07-08T11:04:54.687Z,12.37
2018-07-08T11:09:58.402Z,10.40
2018-07-08T11:15:02.019Z,16.57
2018-07-08T11:20:05.685Z,13.37
2018-07-08T11:25:09.589Z,12.63
2018-07-08T11:30:13.431Z,14.53
2018-07-08T11:35:17.008Z,15.53
2018-07-08T11:40:20.599Z,12.60
2018-07-08T11:45:24.344Z,16.10
2018-07-08T11:50:29.876Z,13.10
2018-07-08T11:55:33.631Z,15.27
2018-07-08T12:00:37.400Z,14.83
2018-07-08T12:05:40.933Z,9.73
2018-07-08T12:10:44.500Z,8.30
2018-07-08T12:15:48.272Z,13.93
2018-07-08T12:20:51.898Z,12.73
2018-07-08T12:25:55.643Z,6.93
2018-07-08T12:30:59.486Z,8.93
2018-07-08T12:36:03.104Z,6.50
2018-07-08T12:41:06.854Z,6.27
2018-07-08T12:46:10.396Z,13.43
2018-07-08T12:51:14.012Z,7.47
2018-07-08T12:56:17.751Z,7.97
2018-07-08T13:01:22.155Z,10.07
2018-07-08T13:06:26.077Z,8.83
2018-07-08T13:11:29.858Z,6.50
2018-07-08T13:16:33.429Z,9.30
2018-07-08T13:21:37.081Z,11.17
2018-07-08T13:26:40.884Z,12.33
2018-07-08T13:31:44.528Z,7.60
2018-07-08T13:36:48.123Z,11.67
2018-07-08T13:41:51.691Z,11.90
2018-07-08T13:46:55.245Z,8.60
2018-07-08T13:51:58.897Z,9.20
2018-07-08T13:57:02.482Z,7.97
2018-07-08T14:02:06.211Z,12.67
2018-07-08T14:07:11.300Z,8.60
2018-07-08T14:12:14.879Z,8.57
2018-07-08T14:17:18.450Z,8.37
2018-07-08T14:22:22.009Z,9.67
2018-07-08T14:27:25.818Z,7.03
2018-07-08T14:32:29.444Z,9.47
2018-07-08T14:37:33.303Z,12.57
2018-07-08T14:42:37.794Z,9.10
2018-07-08T14:47:41.508Z,9.93
2018-07-08T14:52:45.124Z,10.37
2018-07-08T14:57:48.781Z,12.03
2018-07-08T15:02:52.505Z,11.20
2018-07-08T15:07:56.312Z,10.30
2018-07-08T15:13:00.236Z,8.10
2018-07-08T15:18:03.877Z,7.43
2018-07-08T15:23:07.448Z,8.07
2018-07-08T15:28:11.108Z,13.23
2018-07-08T15:33:14.617Z,8.07
2018-07-08T15:38:18.582Z,10.77
2018-07-08T15:43:22.252Z,9.30
2018-07-08T15:48:26.009Z,7.70
2018-07-08T15:53:29.621Z,9.10
2018-07-08T15:58:32.853Z,7.60
2018-07-08T16:03:36.559Z,7.30
2018-07-08T16:08:41.104Z,10.27
2018-07-08T16:13:44.893Z,6.60
2018-07-08T16:18:48.708Z,7.80
2018-07-08T16:23:52.267Z,7.90
2018-07-08T16:28:55.844Z,8.37
2018-07-08T16:34:01.066Z,7.80
2018-07-08T16:39:04.527Z,8.47
2018-07-08T16:44:08.305Z,7.53
2018-07-08T16:49:11.818Z,8.20
2018-07-08T16:54:15.767Z,8.33
2018-07-08T16:59:20.204Z,9.63
2018-07-08T17:04:24.052Z,8.97
2018-07-08T17:09:27.607Z,6.97
2018-07-08T17:14:31.395Z,9.40
2018-07-08T17:19:35.362Z,9.93
2018-07-08T17:24:39.001Z,6.67
2018-07-08T17:29:42.564Z,9.63
2018-07-08T17:34:46.584Z,11.10
2018-07-08T17:39:50.188Z,14.00
2018-07-08T17:44:53.412Z,8.90
2018-07-08T17:49:57.236Z,9.40
2018-07-08T17:55:06.593Z,6.83
2018-07-08T18:00:10.175Z,8.20
2018-07-08T18:05:13.720Z,8.20
2018-07-08T18:10:17.348Z,6.90
2018-07-08T18:15:22.187Z,5.43
2018-07-08T18:20:25.896Z,10.20
2018-07-08T18:25:30.063Z,4.90
2018-07-08T18:30:34.955Z,7.47
2018-07-08T18:35:38.556Z,5.80
2018-07-08T18:40:42.305Z,5.73
2018-07-08T18:45:47.650Z,5.80
2018-07-08T18:50:51.414Z,6.80
2018-07-08T18:55:56.442Z,4.80
2018-07-08T19:01:03.077Z,6.03
2018-07-08T19:06:07.428Z,6.27
2018-07-08T19:11:10.996Z,7.47
2018-07-08T19:16:14.829Z,7.53
2018-07-08T19:21:18.375Z,4.33
2018-07-08T19:26:22.169Z,4.73
2018-07-08T19:31:26.641Z,7.73
2018-07-08T19:36:30.841Z,4.80
2018-07-08T19:41:37.420Z,4.83
2018-07-08T20:03:05.851Z,4.70
2018-07-08T20:08:09.551Z,4.43
2018-07-08T20:13:13.183Z,5.77
2018-07-08T20:18:16.757Z,7.10
2018-07-08T20:23:20.315Z,6.13
2018-07-08T20:28:24.070Z,5.63
2018-07-08T20:33:27.714Z,6.80
2018-07-08T20:38:31.625Z,5.23
2018-07-08T20:43:35.580Z,6.57
2018-07-08T20:48:39.365Z,7.30
2018-07-08T20:53:43.027Z,5.23
2018-07-08T20:58:46.606Z,7.60
2018-07-08T21:03:51.050Z,9.37
2018-07-08T21:08:55.625Z,3.03
2018-07-08T21:13:59.239Z,4.60
2018-07-08T21:19:03.219Z,5.33
2018-07-08T21:24:06.843Z,9.07
2018-07-08T21:29:10.488Z,4.50
2018-07-08T21:34:14.644Z,4.90
2018-07-08T21:39:18.644Z,5.20
2018-07-08T21:44:22.855Z,6.77
2018-07-08T21:49:27.137Z,4.23
2018-07-08T21:54:30.699Z,7.63
2018-07-08T21:59:34.309Z,10.00
2018-07-08T22:04:38.268Z,7.23
2018-07-08T22:09:41.802Z,6.43
2018-07-08T22:14:45.706Z,4.77
2018-07-08T22:19:50.237Z,8.90
2018-07-08T22:24:53.776Z,4.20
2018-07-08T22:29:57.363Z,6.17
2018-07-08T22:35:00.936Z,6.63
2018-07-08T22:40:04.487Z,8.97
2018-07-08T22:45:08.020Z,6.53
2018-07-08T22:50:13.179Z,7.20
2018-07-08T22:55:16.381Z,5.97
2018-07-08T23:00:31.176Z,4.27
2018-07-08T23:05:35.371Z,5.47
2018-07-08T23:10:38.995Z,5.73
2018-07-08T23:15:42.579Z,4.70
2018-07-08T23:20:46.172Z,6.37
2018-07-08T23:25:49.758Z,4.47
2018-07-08T23:30:53.371Z,9.03
2018-07-08T23:35:57.039Z,5.27
2018-07-08T23:41:01.394Z,4.03
2018-07-08T23:46:05.332Z,6.40
2018-07-08T23:51:08.940Z,7.43
2018-07-08T23:56:12.487Z,7.27
